createdAt,value
2019-03-26T00:00:45.050Z,5.10
2019-03-26T00:03:14.720Z,5.00
2019-03-26T00:05:44.334Z,5.00
2019-03-26T00:08:13.948Z,5.10
2019-03-26T00:10:43.615Z,5.00
2019-03-26T00:13:13.242Z,5.00
2019-03-26T00:15:42.872Z,5.00
2019-03-26T00:18:12.475Z,4.90
2019-03-26T00:20:42.103Z,4.90
2019-03-26T00:23:11.740Z,4.90
2019-03-26T00:25:41.365Z,4.80
2019-03-26T00:28:10.996Z,4.70
2019-03-26T00:30:40.611Z,4.70
2019-03-26T00:33:10.244Z,4.60
2019-03-26T00:35:39.867Z,4.70
2019-03-26T00:38:09.499Z,4.70
2019-03-26T00:40:40.274Z,4.60
2019-03-26T00:43:10.114Z,4.60
2019-03-26T00:45:39.845Z,4.60
2019-03-26T00:48:09.466Z,4.60
2019-03-26T00:50:39.102Z,4.70
2019-03-26T00:53:08.773Z,4.70
2019-03-26T00:55:38.426Z,4.70
2019-03-26T00:58:08.038Z,4.80
2019-03-26T01:00:39.462Z,4.90
2019-03-26T01:03:09.081Z,4.90
2019-03-26T01:05:38.675Z,4.90
2019-03-26T01:08:08.282Z,4.70
2019-03-26T01:10:37.942Z,4.70
2019-03-26T01:13:07.599Z,4.70
2019-03-26T01:15:37.218Z,4.60
2019-03-26T01:18:06.841Z,4.50
2019-03-26T01:20:36.464Z,4.40
2019-03-26T01:23:06.079Z,4.30
2019-03-26T01:25:35.687Z,4.30
2019-03-26T01:28:05.331Z,4.20
2019-03-26T01:30:35.005Z,4.20
2019-03-26T01:33:04.663Z,4.20
2019-03-26T01:35:34.269Z,4.10
2019-03-26T01:38:03.886Z,4.10
2019-03-26T01:40:33.955Z,4.10
2019-03-26T01:43:03.557Z,4.00
2019-03-26T01:45:33.177Z,4.00
2019-03-26T01:48:02.874Z,3.90
2019-03-26T01:50:32.510Z,3.90
2019-03-26T01:53:02.144Z,3.90
2019-03-26T01:55:31.856Z,3.80
2019-03-26T01:58:01.551Z,3.80
2019-03-26T02:00:31.171Z,3.80
2019-03-26T02:03:00.795Z,3.70
2019-03-26T02:05:30.403Z,3.80
2019-03-26T02:08:00.035Z,3.70
2019-03-26T02:10:29.675Z,3.70
2019-03-26T02:12:59.327Z,3.70
2019-03-26T02:15:30.877Z,3.70
2019-03-26T02:18:00.945Z,3.70
2019-03-26T02:20:30.683Z,3.70
2019-03-26T02:23:00.312Z,3.60
2019-03-26T02:25:29.914Z,3.60
2019-03-26T02:27:59.568Z,3.50
2019-03-26T02:30:29.583Z,3.50
2019-03-26T02:32:59.433Z,3.50
2019-03-26T02:35:29.057Z,3.30
2019-03-26T02:37:58.658Z,3.30
2019-03-26T02:40:28.276Z,3.30
2019-03-26T02:42:58.665Z,3.30
2019-03-26T02:45:28.303Z,3.30
2019-03-26T02:47:57.912Z,3.20
2019-03-26T02:50:27.532Z,3.20
2019-03-26T02:52:57.156Z,3.20
2019-03-26T02:55:26.824Z,3.10
2019-03-26T02:57:56.610Z,3.10
2019-03-26T03:00:26.239Z,3.00
2019-03-26T03:02:55.935Z,2.90
2019-03-26T03:05:35.111Z,2.90
2019-03-26T03:07:56.918Z,2.80
2019-03-26T03:10:26.551Z,2.70
2019-03-26T03:12:56.193Z,2.60
2019-03-26T03:15:25.807Z,2.50
2019-03-26T03:17:55.429Z,2.50
2019-03-26T03:20:25.044Z,2.40
2019-03-26T03:22:54.724Z,2.40
2019-03-26T03:25:24.369Z,2.30
2019-03-26T03:27:53.980Z,2.20
2019-03-26T03:30:23.614Z,2.10
2019-03-26T03:32:53.282Z,2.00
2019-03-26T03:35:22.984Z,2.00
2019-03-26T03:37:52.628Z,1.90
2019-03-26T03:40:22.248Z,1.80
2019-03-26T03:42:51.901Z,1.70
2019-03-26T03:45:29.185Z,1.70
2019-03-26T03:47:59.358Z,1.60
2019-03-26T03:50:30.560Z,1.60
2019-03-26T03:53:01.915Z,1.60
2019-03-26T03:55:32.806Z,1.60
2019-03-26T03:58:03.457Z,1.50
2019-03-26T04:00:38.281Z,1.50
2019-03-26T04:03:09.784Z,1.50
2019-03-26T04:05:40.820Z,1.50
2019-03-26T04:08:10.412Z,1.50
2019-03-26T04:10:40.051Z,1.60
2019-03-26T04:13:09.665Z,1.50
2019-03-26T04:15:39.426Z,1.50
2019-03-26T04:18:09.071Z,1.50
2019-03-26T04:20:38.696Z,1.50
2019-03-26T04:23:08.322Z,1.50
2019-03-26T04:25:37.947Z,1.50
2019-03-26T04:28:07.590Z,1.40
2019-03-26T04:30:37.317Z,1.40
2019-03-26T04:33:07.107Z,1.30
2019-03-26T04:35:36.731Z,1.30
2019-03-26T04:38:06.364Z,1.20
2019-03-26T04:40:35.998Z,1.20
2019-03-26T04:43:05.766Z,1.20
2019-03-26T04:45:35.389Z,1.20
2019-03-26T04:48:05.009Z,1.20
2019-03-26T04:50:34.621Z,1.20
2019-03-26T04:53:04.311Z,1.20
2019-03-26T04:55:33.948Z,1.20
2019-03-26T04:58:03.580Z,1.10
2019-03-26T05:00:33.246Z,1.20
2019-03-26T05:03:02.932Z,1.10
2019-03-26T05:05:32.555Z,1.10
2019-03-26T05:08:02.174Z,1.10
2019-03-26T05:10:31.794Z,1.10
2019-03-26T05:13:01.413Z,1.00
2019-03-26T05:15:31.083Z,1.00
2019-03-26T05:18:00.708Z,1.00
2019-03-26T05:20:30.339Z,0.90
2019-03-26T05:22:59.950Z,1.00
2019-03-26T05:25:29.650Z,1.10
2019-03-26T05:27:59.340Z,1.10
2019-03-26T05:30:29.041Z,1.10
2019-03-26T05:32:58.676Z,1.20
2019-03-26T05:35:28.294Z,1.20
2019-03-26T05:37:57.946Z,1.20
2019-03-26T05:40:27.561Z,1.20
2019-03-26T05:42:57.426Z,1.10
2019-03-26T05:45:27.118Z,1.10
2019-03-26T05:47:56.784Z,1.10
2019-03-26T05:50:26.452Z,1.20
2019-03-26T05:52:56.152Z,1.20
2019-03-26T05:55:25.723Z,1.30
2019-03-26T05:57:55.333Z,1.40
2019-03-26T06:00:26.726Z,1.50
2019-03-26T06:02:56.341Z,1.60
2019-03-26T06:05:25.989Z,1.70
2019-03-26T06:07:55.626Z,1.80
2019-03-26T06:10:25.257Z,1.90
2019-03-26T06:12:54.921Z,2.00
2019-03-26T06:15:24.552Z,2.00
2019-03-26T06:17:57.312Z,2.10
2019-03-26T06:20:25.535Z,2.20
2019-03-26T06:22:55.156Z,2.30
2019-03-26T06:25:24.713Z,2.30
2019-03-26T06:27:54.332Z,2.40
2019-03-26T06:30:23.989Z,2.40
2019-03-26T06:32:53.612Z,2.50
2019-03-26T06:35:23.242Z,2.50
2019-03-26T06:37:52.870Z,2.40
2019-03-26T06:40:22.496Z,2.50
2019-03-26T06:42:52.136Z,2.50
2019-03-26T06:45:21.779Z,2.60
2019-03-26T06:47:51.386Z,2.60
2019-03-26T06:50:21.026Z,2.60
2019-03-26T06:52:50.717Z,2.60
2019-03-26T06:55:20.356Z,2.70
2019-03-26T06:57:49.991Z,2.70
2019-03-26T07:00:29.804Z,2.80
2019-03-26T07:03:01.016Z,2.80
2019-03-26T07:05:30.648Z,2.90
2019-03-26T07:08:00.288Z,3.00
2019-03-26T07:10:30.352Z,3.10
2019-03-26T07:13:00.209Z,3.20
2019-03-26T07:15:29.921Z,3.30
2019-03-26T07:17:59.587Z,3.40
2019-03-26T07:20:29.372Z,3.50
2019-03-26T07:22:59.007Z,3.60
2019-03-26T07:25:28.646Z,3.70
2019-03-26T07:27:58.282Z,3.80
2019-03-26T07:30:41.485Z,3.80
2019-03-26T07:33:11.303Z,3.90
2019-03-26T07:35:41.178Z,4.00
2019-03-26T07:38:11.010Z,4.20
2019-03-26T07:40:40.661Z,4.30
2019-03-26T07:43:10.303Z,4.40
2019-03-26T07:45:40.221Z,4.40
2019-03-26T07:48:09.887Z,4.60
2019-03-26T07:50:39.688Z,4.70
2019-03-26T07:53:09.490Z,4.90
2019-03-26T07:55:39.119Z,5.00
2019-03-26T07:58:08.776Z,5.10
2019-03-26T08:00:39.060Z,5.20
2019-03-26T08:03:08.954Z,5.30
2019-03-26T08:05:38.638Z,5.40
2019-03-26T08:08:08.351Z,5.50
2019-03-26T08:10:37.974Z,5.60
2019-03-26T08:13:07.616Z,5.70
2019-03-26T08:15:37.307Z,5.90
2019-03-26T08:18:07.076Z,6.00
2019-03-26T08:20:36.707Z,6.10
2019-03-26T08:23:06.382Z,6.20
2019-03-26T08:25:36.025Z,6.20
2019-03-26T08:28:05.696Z,6.20
2019-03-26T08:30:35.396Z,6.30
2019-03-26T08:33:05.091Z,6.50
2019-03-26T08:35:34.719Z,6.70
2019-03-26T08:38:12.301Z,7.10
2019-03-26T08:40:35.899Z,7.60
2019-03-26T08:43:05.544Z,7.90
2019-03-26T08:45:35.185Z,8.10
2019-03-26T08:48:05.329Z,8.20
2019-03-26T08:50:35.023Z,8.10
2019-03-26T08:53:04.630Z,8.10
2019-03-26T08:55:34.173Z,7.90
2019-03-26T08:58:03.771Z,7.90
2019-03-26T09:00:33.415Z,7.90
2019-03-26T09:03:03.043Z,7.80
2019-03-26T09:05:32.769Z,7.70
2019-03-26T09:08:02.678Z,7.60
2019-03-26T09:10:32.304Z,7.70
2019-03-26T09:13:01.958Z,7.80
2019-03-26T09:15:31.595Z,8.00
2019-03-26T09:18:01.210Z,8.20
2019-03-26T09:20:30.823Z,8.30
2019-03-26T09:23:00.462Z,8.30
2019-03-26T09:25:30.419Z,8.40
2019-03-26T09:28:00.087Z,8.40
2019-03-26T09:30:29.925Z,8.50
2019-03-26T09:32:59.636Z,8.60
2019-03-26T09:35:29.258Z,8.70
2019-03-26T09:37:58.923Z,8.90
2019-03-26T09:40:28.536Z,9.20
2019-03-26T09:42:58.147Z,9.20
2019-03-26T09:45:27.766Z,9.20
2019-03-26T09:47:57.401Z,9.30
2019-03-26T09:50:35.096Z,9.30
2019-03-26T09:53:05.095Z,9.30
2019-03-26T09:55:35.118Z,9.30
2019-03-26T09:58:04.846Z,9.30
2019-03-26T10:00:34.526Z,9.40
2019-03-26T10:03:04.184Z,9.50
2019-03-26T10:05:33.842Z,9.50
2019-03-26T10:08:03.484Z,9.50
2019-03-26T10:10:33.184Z,9.50
2019-03-26T10:13:02.880Z,9.50
2019-03-26T10:15:32.524Z,9.40
2019-03-26T10:18:02.152Z,9.30
2019-03-26T10:20:31.766Z,9.20
2019-03-26T10:23:01.901Z,9.00
2019-03-26T10:25:31.598Z,8.90
2019-03-26T10:28:01.254Z,8.70
2019-03-26T10:30:36.041Z,8.60
2019-03-26T10:33:06.844Z,8.50
2019-03-26T10:35:36.522Z,8.60
2019-03-26T10:38:06.331Z,8.60
2019-03-26T10:40:37.127Z,8.80
2019-03-26T10:43:06.866Z,9.10
2019-03-26T10:45:36.492Z,9.50
2019-03-26T10:48:06.318Z,9.70
2019-03-26T10:50:35.942Z,9.80
2019-03-26T10:53:05.579Z,9.80
2019-03-26T10:55:35.208Z,9.70
2019-03-26T10:58:04.824Z,9.70
2019-03-26T11:00:34.474Z,9.90
2019-03-26T11:03:04.109Z,9.80
2019-03-26T11:05:33.806Z,9.80
2019-03-26T11:08:03.415Z,9.80
2019-03-26T11:10:33.036Z,9.70
2019-03-26T11:13:02.654Z,9.80
2019-03-26T11:15:32.288Z,9.90
2019-03-26T11:18:01.930Z,9.90
2019-03-26T11:20:31.550Z,9.90
2019-03-26T11:23:01.199Z,9.90
2019-03-26T11:25:31.700Z,9.80
2019-03-26T11:28:01.427Z,9.80
2019-03-26T11:30:31.071Z,9.70
2019-03-26T11:33:00.774Z,9.60
2019-03-26T11:35:30.432Z,9.50
2019-03-26T11:38:01.701Z,9.50
2019-03-26T11:40:31.421Z,9.70
2019-03-26T11:43:01.068Z,9.90
2019-03-26T11:45:30.682Z,9.90
2019-03-26T11:48:00.301Z,9.90
2019-03-26T11:50:29.940Z,10.00
2019-03-26T11:52:59.580Z,10.00
2019-03-26T11:55:29.256Z,10.10
2019-03-26T11:57:58.950Z,10.10
2019-03-26T12:00:31.837Z,10.00
2019-03-26T12:03:01.451Z,9.90
2019-03-26T12:05:31.102Z,9.70
2019-03-26T12:08:00.737Z,9.50
2019-03-26T12:10:30.374Z,9.30
2019-03-26T12:12:59.992Z,9.20
2019-03-26T12:15:29.616Z,9.20
2019-03-26T12:17:59.258Z,9.30
2019-03-26T12:20:28.892Z,9.50
2019-03-26T12:22:58.496Z,9.80
2019-03-26T12:25:28.184Z,10.10
2019-03-26T12:27:57.835Z,10.30
2019-03-26T12:30:37.655Z,10.50
2019-03-26T12:33:08.483Z,10.40
2019-03-26T12:35:38.306Z,10.30
2019-03-26T12:38:21.418Z,10.00
2019-03-26T12:40:51.362Z,9.90
2019-03-26T12:43:21.035Z,9.80
2019-03-26T12:45:50.683Z,9.80
2019-03-26T12:48:20.316Z,9.90
2019-03-26T12:50:50.021Z,10.00
2019-03-26T12:53:19.638Z,10.10
2019-03-26T12:55:49.245Z,10.30
2019-03-26T12:58:31.147Z,10.30
2019-03-26T13:00:50.288Z,10.30
2019-03-26T13:03:20.026Z,10.20
2019-03-26T13:05:49.705Z,10.40
2019-03-26T13:08:19.578Z,10.50
2019-03-26T13:10:53.874Z,10.40
2019-03-26T13:13:20.761Z,10.40
2019-03-26T13:15:50.478Z,10.40
2019-03-26T13:18:20.213Z,10.30
2019-03-26T13:20:50.052Z,10.30
2019-03-26T13:23:19.698Z,10.30
2019-03-26T13:25:49.443Z,10.50
2019-03-26T13:28:19.172Z,10.80
2019-03-26T13:30:48.874Z,11.00
2019-03-26T13:33:18.581Z,11.20
2019-03-26T13:35:48.294Z,11.50
2019-03-26T13:38:17.925Z,11.70
2019-03-26T13:40:47.567Z,11.90
2019-03-26T13:43:17.417Z,12.10
2019-03-26T13:45:47.043Z,12.20
2019-03-26T13:48:16.671Z,12.10
2019-03-26T13:50:46.301Z,12.10
2019-03-26T13:53:16.022Z,12.00
2019-03-26T13:55:45.767Z,11.90
2019-03-26T13:58:15.488Z,11.70
2019-03-26T14:00:45.361Z,11.50
2019-03-26T14:03:15.003Z,11.40
2019-03-26T14:05:44.795Z,11.50
2019-03-26T14:08:14.492Z,11.80
2019-03-26T14:10:44.216Z,12.00
2019-03-26T14:13:13.983Z,12.30
2019-03-26T14:15:43.776Z,12.40
2019-03-26T14:18:13.721Z,12.30
2019-03-26T14:20:43.474Z,12.10
2019-03-26T14:23:13.251Z,12.00
2019-03-26T14:25:42.965Z,11.90
2019-03-26T14:28:12.757Z,11.80
2019-03-26T14:30:44.194Z,11.60
2019-03-26T14:33:13.967Z,11.50
2019-03-26T14:35:43.723Z,11.40
2019-03-26T14:38:13.534Z,11.40
2019-03-26T14:40:54.071Z,11.40
2019-03-26T14:43:16.229Z,11.40
2019-03-26T14:45:45.917Z,11.30
2019-03-26T14:48:15.727Z,11.20
2019-03-26T14:50:45.409Z,11.20
2019-03-26T14:53:15.045Z,11.10
2019-03-26T14:55:44.810Z,11.10
2019-03-26T14:58:14.585Z,11.10
2019-03-26T15:00:44.389Z,11.10
2019-03-26T15:03:14.293Z,11.10
2019-03-26T15:05:43.932Z,11.10
2019-03-26T15:08:13.635Z,11.10
2019-03-26T15:10:43.411Z,11.00
2019-03-26T15:13:13.185Z,11.10
2019-03-26T15:15:42.843Z,11.10
2019-03-26T15:18:12.589Z,11.10
2019-03-26T15:20:42.893Z,11.00
2019-03-26T15:23:12.797Z,11.00
2019-03-26T15:25:42.837Z,11.00
2019-03-26T15:28:12.739Z,10.90
2019-03-26T15:30:42.561Z,10.90
2019-03-26T15:33:12.841Z,10.90
2019-03-26T15:35:43.069Z,10.90
2019-03-26T15:38:13.039Z,10.90
2019-03-26T15:40:42.663Z,10.90
2019-03-26T15:43:12.281Z,10.90
2019-03-26T15:45:41.911Z,10.90
2019-03-26T15:48:11.631Z,10.90
2019-03-26T15:50:42.857Z,10.90
2019-03-26T15:53:12.675Z,10.90
2019-03-26T15:55:43.706Z,10.90
2019-03-26T15:58:13.423Z,10.90
2019-03-26T16:00:43.037Z,10.90
2019-03-26T16:03:12.887Z,10.90
2019-03-26T16:05:42.491Z,10.90
2019-03-26T16:08:12.139Z,10.90
2019-03-26T16:10:41.779Z,10.90
2019-03-26T16:13:11.495Z,10.80
2019-03-26T16:15:44.736Z,10.80
2019-03-26T16:18:12.464Z,10.80
2019-03-26T16:20:42.144Z,10.70
2019-03-26T16:23:11.938Z,10.80
2019-03-26T16:25:41.607Z,10.70
2019-03-26T16:28:11.240Z,10.70
2019-03-26T16:30:40.875Z,10.60
2019-03-26T16:33:10.573Z,10.60
2019-03-26T16:35:40.527Z,10.40
2019-03-26T16:38:10.294Z,10.40
2019-03-26T16:40:39.845Z,10.30
2019-03-26T16:43:09.638Z,10.30
2019-03-26T16:45:39.295Z,10.20
2019-03-26T16:48:08.944Z,10.10
2019-03-26T16:50:38.589Z,10.10
2019-03-26T16:53:08.233Z,10.00
2019-03-26T16:55:37.886Z,10.10
2019-03-26T16:58:07.523Z,10.00
2019-03-26T17:00:37.145Z,10.00
2019-03-26T17:03:06.786Z,9.90
2019-03-26T17:05:36.423Z,9.80
2019-03-26T17:08:06.053Z,9.80
2019-03-26T17:10:35.771Z,9.70
2019-03-26T17:13:05.543Z,9.70
2019-03-26T17:15:35.283Z,9.70
2019-03-26T17:18:04.922Z,9.70
2019-03-26T17:20:34.560Z,9.60
2019-03-26T17:23:04.271Z,9.60
2019-03-26T17:25:33.946Z,9.60
2019-03-26T17:28:03.560Z,9.50
2019-03-26T17:30:33.219Z,9.50
2019-03-26T17:33:02.958Z,9.40
2019-03-26T17:35:32.655Z,9.30
2019-03-26T17:38:02.374Z,9.10
2019-03-26T17:40:32.006Z,9.00
2019-03-26T17:43:01.670Z,8.90
2019-03-26T17:45:31.312Z,8.80
2019-03-26T17:48:01.017Z,8.80
2019-03-26T17:50:30.667Z,8.80
2019-03-26T17:53:00.303Z,8.70
2019-03-26T17:55:29.949Z,8.60
2019-03-26T17:57:59.777Z,8.50
2019-03-26T18:00:41.974Z,8.40
2019-03-26T18:03:25.264Z,8.30
2019-03-26T18:05:42.935Z,8.20
2019-03-26T18:08:12.557Z,8.10
2019-03-26T18:10:42.198Z,8.00
2019-03-26T18:13:11.811Z,7.90
2019-03-26T18:15:41.503Z,7.70
2019-03-26T18:18:11.126Z,7.60
2019-03-26T18:20:40.730Z,7.40
2019-03-26T18:23:10.406Z,7.20
2019-03-26T18:25:40.412Z,7.10
2019-03-26T18:28:10.050Z,6.90
2019-03-26T18:30:39.706Z,6.80
2019-03-26T18:33:09.344Z,6.60
2019-03-26T18:35:38.971Z,6.50
2019-03-26T18:38:08.725Z,6.50
2019-03-26T18:40:38.650Z,6.40
2019-03-26T18:43:08.410Z,6.40
2019-03-26T18:45:38.042Z,6.40
2019-03-26T18:48:07.886Z,6.30
2019-03-26T18:50:37.505Z,6.30
2019-03-26T18:53:07.161Z,6.20
2019-03-26T18:55:36.858Z,6.20
2019-03-26T18:58:06.499Z,6.10
2019-03-26T19:00:37.564Z,6.00
2019-03-26T19:03:07.770Z,6.00
2019-03-26T19:05:37.430Z,5.90
2019-03-26T19:08:07.172Z,5.80
2019-03-26T19:10:37.531Z,5.80
2019-03-26T19:13:18.696Z,5.70
2019-03-26T19:15:38.799Z,5.60
2019-03-26T19:18:08.444Z,5.60
2019-03-26T19:20:38.222Z,5.60
2019-03-26T19:23:08.006Z,5.60
2019-03-26T19:25:37.720Z,5.60
2019-03-26T19:28:07.477Z,5.60
2019-03-26T19:30:37.123Z,5.60
2019-03-26T19:33:06.838Z,5.60
2019-03-26T19:35:36.434Z,5.70
2019-03-26T19:38:06.129Z,5.70
2019-03-26T19:40:35.749Z,5.70
2019-03-26T19:43:11.244Z,5.70
2019-03-26T19:45:36.773Z,5.70
2019-03-26T19:48:06.416Z,5.70
2019-03-26T19:50:36.065Z,5.80
2019-03-26T19:53:05.721Z,5.80
2019-03-26T19:55:35.370Z,5.80
2019-03-26T19:58:05.073Z,5.80
2019-03-26T20:00:34.691Z,5.80
2019-03-26T20:03:04.340Z,5.80
2019-03-26T20:05:35.512Z,5.80
2019-03-26T20:08:05.583Z,5.80
2019-03-26T20:10:35.269Z,5.80
2019-03-26T20:13:04.981Z,5.80
2019-03-26T20:15:34.718Z,5.90
2019-03-26T20:18:04.432Z,5.80
2019-03-26T20:20:34.144Z,5.90
2019-03-26T20:23:04.068Z,5.80
2019-03-26T20:25:33.683Z,5.90
2019-03-26T20:28:03.316Z,5.90
2019-03-26T20:30:32.957Z,6.00
2019-03-26T20:33:02.606Z,6.00
2019-03-26T20:35:32.259Z,6.10
2019-03-26T20:38:01.895Z,6.10
2019-03-26T20:40:31.556Z,6.10
2019-03-26T20:43:01.590Z,6.30
2019-03-26T20:45:31.229Z,6.40
2019-03-26T20:48:00.872Z,6.60
2019-03-26T20:50:30.500Z,6.60
2019-03-26T20:53:00.216Z,6.60
2019-03-26T20:55:34.524Z,6.70
2019-03-26T20:58:04.802Z,6.70
2019-03-26T21:00:36.227Z,6.70
2019-03-26T21:03:05.913Z,6.70
2019-03-26T21:05:35.679Z,6.80
2019-03-26T21:08:05.404Z,6.80
2019-03-26T21:10:35.067Z,6.70
2019-03-26T21:13:04.835Z,6.80
2019-03-26T21:15:34.484Z,6.80
2019-03-26T21:18:04.386Z,6.80
2019-03-26T21:20:34.007Z,6.80
2019-03-26T21:23:03.643Z,6.70
2019-03-26T21:25:33.594Z,6.60
2019-03-26T21:28:03.324Z,6.60
2019-03-26T21:30:32.989Z,6.50
2019-03-26T21:33:02.677Z,6.40
2019-03-26T21:35:32.377Z,6.30
2019-03-26T21:38:02.154Z,6.30
2019-03-26T21:40:31.869Z,6.20
2019-03-26T21:43:01.481Z,6.20
2019-03-26T21:45:35.919Z,6.20
2019-03-26T21:48:06.436Z,6.20
2019-03-26T21:50:36.273Z,6.30
2019-03-26T21:53:06.038Z,6.40
2019-03-26T21:55:35.693Z,6.40
2019-03-26T21:58:05.444Z,6.50
2019-03-26T22:00:35.161Z,6.50
2019-03-26T22:03:04.783Z,6.50
2019-03-26T22:05:34.505Z,6.50
2019-03-26T22:08:04.188Z,6.50
2019-03-26T22:10:33.936Z,6.50
2019-03-26T22:13:03.582Z,6.60
2019-03-26T22:15:33.215Z,6.60
2019-03-26T22:18:02.893Z,6.60
2019-03-26T22:20:32.612Z,6.60
2019-03-26T22:23:02.462Z,6.60
2019-03-26T22:25:32.273Z,6.70
2019-03-26T22:28:02.067Z,6.70
2019-03-26T22:30:31.711Z,6.70
2019-03-26T22:33:01.384Z,6.70
2019-03-26T22:35:31.077Z,6.70
2019-03-26T22:38:00.710Z,6.60
2019-03-26T22:40:30.325Z,6.60
2019-03-26T22:42:59.944Z,6.60
2019-03-26T22:45:29.575Z,6.60
2019-03-26T22:47:59.211Z,6.60
2019-03-26T22:50:28.855Z,6.60
2019-03-26T22:52:58.516Z,6.60
2019-03-26T22:55:28.147Z,6.60
2019-03-26T22:57:57.771Z,6.60
2019-03-26T23:00:29.415Z,6.60
2019-03-26T23:02:59.180Z,6.60
2019-03-26T23:05:28.796Z,6.50
2019-03-26T23:07:58.417Z,6.60
2019-03-26T23:10:28.045Z,6.60
2019-03-26T23:12:57.679Z,6.60
2019-03-26T23:15:28.257Z,6.60
2019-03-26T23:17:57.889Z,6.60
2019-03-26T23:20:27.484Z,6.60
2019-03-26T23:22:57.289Z,6.60
2019-03-26T23:25:26.919Z,6.60
2019-03-26T23:27:56.579Z,6.60
2019-03-26T23:30:26.224Z,6.60
2019-03-26T23:32:55.881Z,6.60
2019-03-26T23:35:25.484Z,6.60
2019-03-26T23:37:55.130Z,6.50
2019-03-26T23:40:24.747Z,6.50
2019-03-26T23:42:54.455Z,6.50
2019-03-26T23:45:24.101Z,6.50
2019-03-26T23:47:53.784Z,6.40
2019-03-26T23:50:23.529Z,6.40
2019-03-26T23:52:53.165Z,6.40
2019-03-26T23:55:22.904Z,6.30
2019-03-26T23:57:52.535Z,6.40
